Aviation Digital Data Service (ADDS)

Output produced by METARs form (0243 UTC 24 July 2017)
found at http://www.aviationweather.gov/adds/metars/
 
ZBHH 240200Z VRB01MPS 9999 -RA BKN040 20/16 Q1013 NOSIG
TAF ZBHH 231901Z 2400/2424 09004MPS 9999 SCT040 TX31/2407Z TN21/2421Z
       
ZGGG 240230Z 07004MPS 030V090 9999 BKN036 28/25 Q1006 NOSIG
TAF ZGGG 232102Z 2400/2424 12003MPS 8000 BKN033 TX32/2407Z TN26/2422Z 
     TEMPO 2406/2412 2500 TSRA SCT011 SCT030CB BKN033
       
ZGSZ 240200Z 04004MPS 350V080 9999 SCT017 FEW020TCU 29/26 Q1006 NOSIG
TAF ZGSZ 231903Z 2400/2424 13004MPS 6000 BKN040 TX31/2406Z TN26/2422Z 
     TEMPO 2405/2411 2000 TSRA SCT012 FEW020CB OVC030
       
ZBTJ 240230Z 02003MPS 350V050 3000 HZ NSC 29/22 Q1004 NOSIG
TAF ZBTJ 231918Z 2400/2424 06004MPS 3000 BR NSC TX29/2407Z TN23/2421Z
       
ZBAA 240230Z 33002MPS 280V010 CAVOK 29/24 Q1005 NOSIG
TAF ZBAA 232120Z 2400/2424 36004MPS CAVOK TX28/2407Z TN23/2421Z
       
ZSFZ 240200Z 16003G08MPS 130V190 9999 FEW020 33/26 Q1006 NOSIG
TAF ZSFZ 231936Z 2400/2424 20004MPS 9999 FEW030 TX36/2406Z TN27/2421Z
       
ZYCC 240200Z 34004MPS 290V020 CAVOK 26/18 Q1005 NOSIG
TAF ZYCC 232102Z 2400/2424 31004MPS 5000 BR BKN023 TX27/2406Z TN20/2421Z
       
ZWWW 240230Z VRB01MPS CAVOK 29/08 Q1010 NOSIG
TAF ZWWW 232110Z 2400/2424 18004MPS CAVOK TX34/2408Z TN22/2423Z 
     BECMG 2402/2403 36004MPS 
     BECMG 2413/2414 18004MPS
       
ZSAM 240200Z 23002MPS 190V250 9999 SCT026 33/23 Q1007 NOSIG
TAF ZSAM 231906Z 2400/2424 19004MPS 8000 SCT030 TX35/2406Z TN28/2421Z
       
ZSSS 240230Z VRB02MPS CAVOK 39/25 Q1004 BECMG TL0420 20005MPS
TAF ZSSS 231917Z 2400/2424 16004MPS 6000 NSC TX41/2406Z TN31/2421Z
       
ZGHA 240200Z VRB02MPS CAVOK 33/23 Q1006 NOSIG
TAF ZGHA 231904Z 2400/2424 19004MPS 6000 SCT040 TX39/2406Z TN27/2422Z
       
ZUCK 240200Z 10002MPS 070V150 CAVOK 32/22 Q1006 NOSIG
TAF ZUCK 231902Z 2400/2424 17003MPS 6000 SCT050 TX39/2408Z TN28/2421Z
       
ZWSH 240200Z 31005MPS 9999 SCT040 21/13 Q1013 NOSIG
TAF ZWSH 232109Z 2400/2424 32004MPS CAVOK TX30/2409Z TN19/2400Z 
     BECMG 2404/2405 09004MPS 
     BECMG 2410/2411 32004MPS 9999 FEW040CB SCT040
       
ZGKL 240200Z VRB01MPS 6000 SCT050 BKN066 29/25 Q1007 NOSIG
TAF ZGKL 231914Z 2400/2424 05002MPS 9999 SCT040 SCT060 TX35/2408Z TN25/2422Z 
     TEMPO 2406/2410 2800 TSRA FEW015 SCT033 FEW033CB OVC040
       
ZSNB 240200Z VRB01MPS CAVOK 36/25 Q1005 NOSIG
TAF ZSNB 231933Z 2400/2424 18004MPS 5000 BR SCT040 TX40/2406Z TN27/2421Z
       
ZSQD 240200Z 29002MPS 220V340 5000 BR NSC 35/28 Q1002 NOSIG
TAF ZSQD 231939Z 2400/2424 18003MPS 5000 BR NSC TX35/2406Z TN27/2421Z 
     BECMG 2404/2405 36004MPS 
     TEMPO 2408/2414 2500 TSRA BKN020 SCT030CB
       
ZSNJ 240200Z 25004MPS 210V290 9000 NSC 37/26 Q1005 NOSIG
TAF ZSNJ 231903Z 2400/2424 24003MPS 3000 BR FEW033 TX40/2407Z TN28/2421Z
       
ZSOF 240200Z 26003MPS 200V300 CAVOK 36/25 Q1005 NOSIG
TAF ZSOF 231902Z 2400/2424 18003MPS 4000 HZ NSC TX40/2407Z TN28/2422Z
       
ZJHK 240200Z 13004MPS 100V160 9999 -SHRA FEW013 FEW023CB SCT023 27/26 Q1004 BECMG SHRA
TAF ZJHK 231908Z 2400/2424 04004MPS 9999 SCT020 TX30/2407Z TN26/2421Z 
     BECMG 2403/2404 BKN020 FEW026CB 
     BECMG 2411/2412 SCT020 
     TEMPO 2400/2406 -TSRA BKN020 FEW026CB 
     TEMPO 2407/2412 TSRA
       
ZJSY 240200Z 28002MPS 240V330 9999 SCT066 29/25 Q1003 NOSIG
TAF ZJSY 231921Z 2400/2424 27004MPS 9999 SCT018 TX29/2403Z TN23/2421Z 
     TEMPO 2407/2413 2800 TSRA SCT012 FEW025CB BKN033 
     TEMPO 2418/2424 09009G15MPS 1800 +SHRA SCT008 FEW025CB BKN033
       
ZSPD 240230Z VRB02MPS CAVOK 37/24 Q1005 NOSIG
TAF ZSPD 232112Z 2400/2424 16004MPS 6000 SCT020 TX39/2406Z TN28/2420Z
       
ZUUU 240200Z 00000MPS CAVOK 26/23 Q1008 NOSIG
TAF ZUUU 232010Z 2400/2424 20003MPS 5000 BR SCT050 TX35/2407Z TN22/2422Z 
     TEMPO 2411/2413 -TSRA FEW030CB SCT040
       
ZYHB 240200Z 33007MPS 9999 SCT033 24/16 Q1004 NOSIG
TAF ZYHB 231917Z 2400/2424 30004MPS 6000 SCT030 TX30/2406Z TN18/2421Z
       
ZYTX 240230Z VRB01MPS 7000 NSC 27/22 Q1004 NOSIG
TAF ZYTX 231902Z 2400/2424 31004MPS 6000 NSC TX30/2406Z TN20/2421Z
       
ZHHH 240200Z 26004MPS CAVOK 35/25 Q1005 NOSIG
TAF ZHHH 231904Z 2400/2424 22003MPS 6000 NSC TX38/2407Z TN29/2421Z
       
ZPPP 240200Z 22003MPS 170V270 9999 FEW020TCU SCT020 20/15 Q1020 NOSIG
TAF ZPPP 231913Z 2400/2424 16004MPS 9999 SCT020 BKN040 TX23/2408Z TN14/2423Z
       
ZBYN 240230Z VRB01MPS 9999 SCT040 27/23 Q1009 NOSIG
TAF ZBYN 231906Z 2400/2424 21004MPS 5000 HZ NSC TX29/2407Z TN21/2421Z 
     TEMPO 2406/2410 -TSRA FEW030CB SCT040
       
ZGNN 240200Z 12003MPS 090V180 9999 FEW020 29/24 Q1006 NOSIG
TAF ZGNN 231910Z 2400/2424 08003MPS 7000 SCT033 TX32/2407Z TN26/2422Z 
     TEMPO 2403/2409 TSRA SCT010 FEW026CB BKN030
       
ZLXY 240200Z 24003MPS 190V280 CAVOK 36/19 Q1005 NOSIG
TAF ZLXY 231914Z 2400/2424 23003MPS 6000 NSC TX42/2408Z TN28/2421Z 
     TEMPO 2406/2412 SHRA FEW040CB SCT060
       
ZSHC 240230Z 29003MPS 250V330 CAVOK 38/25 Q1005 NOSIG
TAF ZSHC 231909Z 2400/2424 09003MPS 6000 NSC TX40/2406Z TN29/2421Z
       
ZHCC 240200Z 05003MPS 010V100 3000 HZ NSC 34/27 Q1004 NOSIG
TAF ZHCC 231908Z 2400/2424 18003MPS 6000 NSC TX38/2407Z TN28/2422Z
       
ZSJN 232123Z 35005MPS 2100 BR OVC033 27/26 Q1002 NOSIG
ZBSJ 240200Z 34001MPS 1000 R33/1000N -RA BR OVC033 25/25 Q1005 RETSRA BECMG 1500
TAF AMD ZBSJ 232233Z 2400/2424 33004MPS 1400 -RA BR BKN040 TX31/2406Z TN23/2421Z 
     BECMG 2402/2403 3000 BR 
     TEMPO 2400/2406 33009G15MPS -TSRA FEW030CB BKN040
       
ZLLL 240200Z 06003MPS 010V100 9999 OVC043 19/12 Q1018 NOSIG
TAF ZLLL 231930Z 2400/2424 06003MPS 9999 BKN040 TX26/2408Z TN16/2422Z
       
ZYTL 240230Z 32005MPS 280V360 5000 BR FEW026 29/23 Q1004 NOSIG
TAF ZYTL 231914Z 2400/2424 33004MPS 6000 BKN026 TX29/2406Z TN24/2421Z 
     TEMPO 2400/2406 2000 -TSRA BR SCT008 OVC026 FEW033CB